Time;durP1;ratioP1;P1;durP2;ratioP2;P2;SDS_P1;SDS_P2;PMS_P1;PMS_P2;Temp;Humidity;BMP_temperature;BMP_pressure;BME280_temperature;BME280_humidity;BME280_pressure;Samples;Min_cycle;Max_cycle;Signal;HPM_P1;HPM_P2
2021/01/17 00:00:49;;;;;;;109.87;29.20;;;;;;;-16.52;59.66;99439.06;124342;1147;22669;-68
2021/01/17 00:03:17;;;;;;;83.10;25.70;;;;;;;-16.54;59.48;99436.55;124267;1145;22696;-67
2021/01/17 00:05:45;;;;;;;109.47;27.70;;;;;;;-16.56;59.84;99432.34;124496;1147;22665;-67
2021/01/17 00:08:17;;;;;;;97.50;27.03;;;;;;;-16.57;60.76;99428.89;124204;1146;22685;-68
2021/01/17 00:10:45;;;;;;;99.03;28.83;;;;;;;-16.58;59.49;99429.83;124348;1147;22709;-67
2021/01/17 00:13:13;;;;;;;101.30;26.93;;;;;;;-16.59;59.61;99424.73;124295;1147;22710;-67
2021/01/17 00:15:41;;;;;;;80.23;25.33;;;;;;;-16.64;59.44;99425.02;124297;1147;22651;-68
2021/01/17 00:18:08;;;;;;;86.83;23.90;;;;;;;-16.70;59.86;99427.13;124253;1146;22721;-67
2021/01/17 00:20:36;;;;;;;86.03;26.53;;;;;;;-16.80;59.45;99428.61;124321;1147;22660;-67
2021/01/17 00:23:04;;;;;;;79.80;22.83;;;;;;;-16.85;60.25;99426.26;124265;1145;22697;-67
2021/01/17 00:25:32;;;;;;;82.43;24.57;;;;;;;-16.88;59.46;99424.70;124429;1146;22689;-68
2021/01/17 00:28:01;;;;;;;105.53;27.10;;;;;;;-16.90;59.93;99425.70;124404;1147;23510;-67
2021/01/17 00:30:31;;;;;;;94.60;26.80;;;;;;;-16.92;60.62;99433.61;124376;1146;22670;-68
2021/01/17 00:33:00;;;;;;;100.17;27.83;;;;;;;-16.95;59.59;99436.38;124441;1146;22703;-67
2021/01/17 00:35:28;;;;;;;91.90;27.13;;;;;;;-16.97;60.30;99430.41;124322;1147;22649;-67
2021/01/17 00:37:57;;;;;;;96.20;27.27;;;;;;;-16.98;60.88;99430.50;124442;1146;23508;-67
2021/01/17 00:40:25;;;;;;;94.97;27.00;;;;;;;-17.02;61.01;99436.84;124221;1146;22657;-67
2021/01/17 00:42:53;;;;;;;97.50;26.23;;;;;;;-17.07;60.81;99428.44;124532;1146;22781;-68
2021/01/17 00:45:24;;;;;;;91.47;24.13;;;;;;;-17.10;61.06;99436.41;124285;1146;22678;-67
2021/01/17 00:47:51;;;;;;;78.43;24.17;;;;;;;-17.10;60.60;99441.62;124406;1147;23397;-67
2021/01/17 00:50:19;;;;;;;94.57;22.07;;;;;;;-17.08;60.99;99444.98;123967;1147;22665;-68
2021/01/17 00:52:53;;;;;;;75.47;23.90;;;;;;;-17.11;60.33;99442.55;124310;1147;22683;-67
2021/01/17 00:55:22;;;;;;;83.70;23.43;;;;;;;-17.12;61.33;99443.47;124156;1147;22705;-67
2021/01/17 00:57:51;;;;;;;81.70;24.67;;;;;;;-17.07;60.77;99449.27;124251;1147;22750;-67
2021/01/17 01:00:21;;;;;;;94.10;24.90;;;;;;;-17.02;60.56;99444.65;124130;1148;23411;-67
2021/01/17 01:03:06;;;;;;;;;;;;;;;-16.98;60.33;99441.77;124310;1147;22697;-67
2021/01/17 01:05:34;;;;;;;59.30;17.07;;;;;;;-16.98;61.23;99438.31;124298;1147;22381;-67
2021/01/17 01:08:06;;;;;;;63.97;17.30;;;;;;;-16.95;60.62;99443.36;124447;1147;22678;-67
2021/01/17 01:10:33;;;;;;;75.13;19.80;;;;;;;-16.89;61.60;99451.67;124280;1147;22698;-67
2021/01/17 01:13:01;;;;;;;63.87;19.63;;;;;;;-16.84;61.04;99454.83;124148;1146;22665;-67
2021/01/17 01:15:28;;;;;;;64.90;20.47;;;;;;;-16.79;61.38;99451.97;124248;1146;23496;-67
2021/01/17 01:17:55;;;;;;;71.43;19.60;;;;;;;-16.75;61.92;99455.25;124295;1147;22694;-67
2021/01/17 01:20:23;;;;;;;63.83;18.87;;;;;;;-16.73;61.29;99456.00;124098;1147;22719;-68
2021/01/17 01:22:51;;;;;;;62.73;20.60;;;;;;;-16.72;61.15;99452.44;124627;1143;22665;-68
2021/01/17 01:25:18;;;;;;;73.27;22.13;;;;;;;-16.73;61.04;99443.78;124681;1143;22672;-67
2021/01/17 01:27:46;;;;;;;75.27;23.43;;;;;;;-16.71;62.10;99444.53;124577;1144;22672;-68
2021/01/17 01:30:16;;;;;;;76.70;22.60;;;;;;;-16.72;61.96;99442.86;124765;1143;22696;-68
2021/01/17 01:32:43;;;;;;;91.80;24.73;;;;;;;-16.73;61.92;99448.99;124642;1143;23500;-67
2021/01/17 01:35:11;;;;;;;95.33;27.37;;;;;;;-16.72;62.10;99442.86;124703;1143;22813;-67
2021/01/17 01:37:39;;;;;;;87.97;28.40;;;;;;;-16.71;60.97;99436.72;124719;1143;22673;-68
2021/01/17 01:40:07;;;;;;;90.20;30.60;;;;;;;-16.69;61.32;99445.30;124799;1142;22649;-67
2021/01/17 01:42:35;;;;;;;101.90;29.30;;;;;;;-16.67;61.15;99447.81;124572;1143;22682;-67
2021/01/17 01:45:02;;;;;;;92.90;30.57;;;;;;;-16.68;61.92;99444.36;124722;1143;22695;-67
2021/01/17 01:47:29;;;;;;;86.00;26.77;;;;;;;-16.65;61.58;99438.14;124617;1143;22678;-67
2021/01/17 01:49:58;;;;;;;81.10;27.00;;;;;;;-16.65;61.39;99436.37;124650;1144;23521;-67
2021/01/17 01:52:26;;;;;;;87.33;25.87;;;;;;;-16.62;61.14;99437.97;124729;1143;22793;-67
2021/01/17 01:54:53;;;;;;;70.73;23.83;;;;;;;-16.64;61.76;99438.05;124796;1144;22700;-68
2021/01/17 01:57:20;;;;;;;108.30;28.90;;;;;;;-16.64;61.03;99426.79;124676;1143;23978;-67
2021/01/17 01:59:48;;;;;;;124.53;33.47;;;;;;;-16.63;60.92;99436.29;124751;1142;22670;-67
2021/01/17 02:02:15;;;;;;;127.33;34.93;;;;;;;-16.63;62.12;99438.89;124705;1143;22851;-67
2021/01/17 02:04:43;;;;;;;121.07;34.23;;;;;;;-16.60;61.07;99441.30;124590;1143;22657;-67
2021/01/17 02:07:13;;;;;;;139.93;37.03;;;;;;;-16.59;60.57;99429.95;124711;1143;22677;-67
2021/01/17 02:09:42;;;;;;;119.53;31.50;;;;;;;-16.58;60.58;99428.98;124724;1143;22743;-67
2021/01/17 02:12:26;;;;;;;112.47;31.37;;;;;;;-16.59;60.92;99437.77;124617;1143;22750;-67
2021/01/17 02:15:17;;;;;;;92.53;28.83;;;;;;;-16.62;60.18;99432.75;124639;1144;22752;-67
2021/01/17 02:17:44;;;;;;;103.90;26.90;;;;;;;-16.63;59.99;99431.91;124383;1143;23513;-65
2021/01/17 02:20:24;;;;;;;96.35;27.90;;;;;;;-16.68;60.05;99433.10;124461;1143;22705;-66
2021/01/17 02:22:58;;;;;;;89.77;24.20;;;;;;;-16.72;60.96;99434.20;124535;1143;22694;-67
2021/01/17 02:25:36;;;;;;;80.17;24.10;;;;;;;-16.75;60.85;99435.24;124611;1143;22673;-67
2021/01/17 02:28:05;;;;;;;;;;;;;;;-16.78;59.70;99439.78;124538;1143;23639;-67
2021/01/17 02:30:34;;;;;;;73.17;19.10;;;;;;;-16.83;59.98;99437.44;124806;1142;21480;-68
2021/01/17 02:33:13;;;;;;;86.63;23.00;;;;;;;-16.86;59.92;99442.81;124480;1143;22677;-67
2021/01/17 02:35:40;;;;;;;84.03;23.33;;;;;;;-16.92;60.24;99445.80;123815;1143;22921;-67
2021/01/17 02:38:16;;;;;;;82.33;22.37;;;;;;;-16.98;59.67;99438.31;124678;1143;22681;-67
2021/01/17 02:41:01;;;;;;;68.17;19.53;;;;;;;-17.09;60.15;99433.73;124622;1143;23295;-67
2021/01/17 02:43:28;;;;;;;64.87;20.23;;;;;;;-17.18;60.06;99436.02;124570;1143;22759;-67
2021/01/17 02:45:56;;;;;;;70.67;20.00;;;;;;;-17.20;60.06;99436.11;124705;1143;23294;-67
2021/01/17 02:48:24;;;;;;;75.43;21.17;;;;;;;-17.19;60.61;99435.18;124854;1143;23969;-67
2021/01/17 02:50:51;;;;;;;84.63;21.97;;;;;;;-17.21;59.93;99429.22;124648;1143;22707;-67
2021/01/17 02:53:43;;;;;;;88.53;23.33;;;;;;;-17.22;59.98;99430.14;124812;1142;23235;-67
2021/01/17 02:56:15;;;;;;;79.40;22.17;;;;;;;-17.21;60.48;99430.06;124606;1143;22780;-67
2021/01/17 02:58:43;;;;;;;103.20;25.87;;;;;;;-17.17;60.52;99424.69;124687;1143;22659;-67
2021/01/17 03:01:12;;;;;;;117.80;29.40;;;;;;;-17.20;60.31;99423.92;124539;1143;22655;-67
2021/01/17 03:03:41;;;;;;;132.07;32.00;;;;;;;-17.24;60.21;99422.41;124771;1144;22678;-67
2021/01/17 03:06:10;;;;;;;164.90;36.30;;;;;;;-17.31;59.69;99423.67;124527;1144;24449;-67
2021/01/17 03:08:37;;;;;;;164.47;37.37;;;;;;;-17.29;60.02;99414.02;124774;1144;22661;-67
2021/01/17 03:11:05;;;;;;;171.85;43.20;;;;;;;-17.24;60.40;99418.97;124639;1142;22695;-67
2021/01/17 03:13:35;;;;;;;197.83;43.13;;;;;;;-17.22;59.98;99420.56;124720;1143;23494;-67
2021/01/17 03:16:06;;;;;;;167.30;38.93;;;;;;;-17.24;60.20;99426.78;124628;1142;22674;-67
2021/01/17 03:18:34;;;;;;;133.27;31.63;;;;;;;-17.31;59.63;99415.86;124763;1143;22769;-67
2021/01/17 03:21:01;;;;;;;127.20;34.23;;;;;;;-17.32;60.17;99429.83;124637;1143;22664;-67
2021/01/17 03:23:28;;;;;;;135.30;34.30;;;;;;;-17.31;59.83;99425.47;124784;1144;23149;-67
2021/01/17 03:25:56;;;;;;;104.67;30.40;;;;;;;-17.32;60.23;99419.42;124623;1143;22665;-67
2021/01/17 03:28:24;;;;;;;118.63;31.80;;;;;;;-17.31;59.75;99435.88;124716;1143;23386;-67
2021/01/17 03:30:51;;;;;;;97.27;28.13;;;;;;;-17.30;60.39;99427.11;124647;1144;22818;-67
2021/01/17 03:33:19;;;;;;;85.97;28.07;;;;;;;-17.26;60.46;99418.21;124576;1143;22724;-67
2021/01/17 03:35:47;;;;;;;84.07;24.40;;;;;;;-17.29;59.55;99421.82;124582;1143;22698;-67
2021/01/17 03:38:14;;;;;;;92.63;26.20;;;;;;;-17.36;59.52;99420.50;124647;1142;23450;-67
2021/01/17 03:40:41;;;;;;;85.47;23.50;;;;;;;-17.42;60.01;99417.39;124685;1143;22684;-67
2021/01/17 03:43:09;;;;;;;74.93;22.53;;;;;;;-17.45;60.33;99413.19;124742;1142;22724;-67
2021/01/17 03:45:37;;;;;;;60.10;20.17;;;;;;;-17.41;60.65;99406.89;124812;1143;23420;-67
2021/01/17 03:48:04;;;;;;;70.10;21.73;;;;;;;-17.35;60.75;99401.36;124645;1143;22761;-67
2021/01/17 03:50:32;;;;;;;75.93;23.60;;;;;;;-17.30;60.23;99404.52;124755;1142;22693;-67
2021/01/17 03:52:59;;;;;;;66.20;21.07;;;;;;;-17.31;59.78;99408.05;124672;1143;23335;-67
2021/01/17 03:55:27;;;;;;;65.73;21.27;;;;;;;-17.38;59.31;99396.32;124725;1143;23156;-68
2021/01/17 03:57:54;;;;;;;72.20;20.30;;;;;;;-17.43;60.19;99393.13;124592;1143;22702;-67
2021/01/17 04:00:22;;;;;;;61.40;19.83;;;;;;;-17.46;60.30;99398.53;124689;1142;22673;-67
2021/01/17 04:02:49;;;;;;;68.33;19.83;;;;;;;-17.45;60.31;99404.58;124705;1142;22662;-67
2021/01/17 04:05:17;;;;;;;66.10;20.57;;;;;;;-17.49;59.65;99390.89;124599;1143;22674;-67
2021/01/17 04:07:45;;;;;;;75.17;21.23;;;;;;;-17.51;59.39;99407.50;124482;1143;22764;-67
2021/01/17 04:10:12;;;;;;;61.93;20.63;;;;;;;-17.56;60.47;99399.94;124816;1143;23836;-67
2021/01/17 04:12:40;;;;;;;67.23;19.30;;;;;;;-17.53;60.02;99397.17;124691;1142;22690;-67
2021/01/17 04:15:08;;;;;;;64.53;19.80;;;;;;;-17.48;60.44;99405.58;124834;1143;25392;-67
2021/01/17 04:17:35;;;;;;;55.87;17.63;;;;;;;-17.47;59.77;99414.23;124527;1142;22663;-67
2021/01/17 04:20:04;;;;;;;57.23;18.20;;;;;;;-17.51;59.79;99410.11;124763;1142;23621;-67
2021/01/17 04:22:36;;;;;;;71.07;21.40;;;;;;;-17.60;60.25;99404.47;124538;1142;22744;-68
2021/01/17 04:25:06;;;;;;;72.97;18.93;;;;;;;-17.63;60.38;99402.06;124637;1143;23490;-67
2021/01/17 04:27:34;;;;;;;76.73;19.33;;;;;;;-17.62;60.36;99403.74;124550;1143;22710;-67
2021/01/17 04:30:02;;;;;;;104.37;21.77;;;;;;;-17.62;59.90;99402.91;124665;1143;23271;-67
2021/01/17 04:32:30;;;;;;;90.20;21.97;;;;;;;-17.65;60.40;99416.95;124635;1142;23494;-67
2021/01/17 04:34:57;;;;;;;76.00;19.10;;;;;;;-17.66;60.60;99419.63;124585;1143;24023;-67
2021/01/17 04:37:25;;;;;;;88.40;20.10;;;;;;;-17.63;60.65;99417.67;124726;1144;23368;-68
2021/01/17 04:39:52;;;;;;;80.20;20.57;;;;;;;-17.63;59.94;99422.07;123085;1144;23065;-67
2021/01/17 04:42:20;;;;;;;81.77;18.70;;;;;;;-17.62;60.41;99423.72;120157;1144;22885;-67
2021/01/17 04:44:52;;;;;;;86.30;22.53;;;;;;;-17.58;60.75;99422.60;124530;1142;22757;-67
2021/01/17 04:47:21;;;;;;;79.80;21.00;;;;;;;-17.55;60.12;99417.23;124783;1143;22773;-67
2021/01/17 04:49:52;;;;;;;92.17;20.87;;;;;;;-17.55;60.48;99414.63;124603;1143;22653;-67
2021/01/17 04:52:21;;;;;;;102.57;24.27;;;;;;;-17.52;60.35;99409.27;124754;1144;22754;-67
2021/01/17 04:54:48;;;;;;;103.03;27.47;;;;;;;-17.46;60.22;99413.30;124679;1142;22695;-67
2021/01/17 04:57:22;;;;;;;137.00;33.57;;;;;;;-17.43;60.34;99408.74;124481;1144;22701;-67
2021/01/17 05:00:06;;;;;;;108.20;26.63;;;;;;;-17.39;60.69;99409.41;124524;1143;22752;-67
2021/01/17 05:02:34;;;;;;;81.07;20.57;;;;;;;-17.37;61.04;99408.41;124574;1142;22747;-67
2021/01/17 05:05:24;;;;;;;82.73;22.67;;;;;;;-17.36;60.67;99410.09;124377;1144;22670;-67
2021/01/17 05:08:20;;;;;;;69.10;19.87;;;;;;;-17.35;60.34;99409.17;124758;1143;22663;-67
2021/01/17 05:10:47;;;;;;;60.00;18.17;;;;;;;-17.32;60.29;99410.77;124678;1143;22668;-67
2021/01/17 05:13:16;;;;;;;61.93;19.13;;;;;;;-17.32;60.44;99408.16;124487;1144;24414;-67
2021/01/17 05:15:44;;;;;;;70.80;21.25;;;;;;;-17.34;59.61;99404.80;123656;1143;22960;-67
2021/01/17 05:18:12;;;;;;;77.17;24.10;;;;;;;-17.35;59.82;99405.73;124824;1143;22693;-67
2021/01/17 05:20:39;;;;;;;91.17;21.97;;;;;;;-17.34;60.52;99402.20;124638;1143;22662;-67
2021/01/17 05:23:09;;;;;;;77.63;22.77;;;;;;;-17.35;60.24;99398.76;124793;1143;23405;-67
2021/01/17 05:25:36;;;;;;;88.33;22.00;;;;;;;-17.34;60.67;99402.20;124441;1143;22769;-67
2021/01/17 05:28:04;;;;;;;78.67;22.07;;;;;;;-17.33;60.16;99407.33;124678;1143;22655;-67
2021/01/17 05:30:31;;;;;;;76.20;22.20;;;;;;;-17.31;60.19;99404.64;124654;1143;23832;-67
2021/01/17 05:32:58;;;;;;;90.50;25.00;;;;;;;-17.30;59.84;99411.49;124833;1142;22674;-67
2021/01/17 05:35:26;;;;;;;100.70;26.03;;;;;;;-17.30;60.13;99408.89;124402;1144;22683;-67
2021/01/17 05:37:55;;;;;;;96.67;26.73;;;;;;;-17.27;59.84;99413.93;124742;1142;22748;-68
2021/01/17 05:40:22;;;;;;;117.40;28.83;;;;;;;-17.29;59.47;99411.41;124638;1143;22658;-67
2021/01/17 05:42:50;;;;;;;95.50;26.57;;;;;;;-17.37;58.80;99410.17;124715;1143;22730;-67
2021/01/17 05:45:22;;;;;;;101.87;28.90;;;;;;;-17.42;59.02;99409.58;124584;1144;22704;-67
2021/01/17 05:47:59;;;;;;;106.27;27.70;;;;;;;-17.47;59.64;99416.83;124659;1143;23452;-67
2021/01/17 05:50:28;;;;;;;113.80;29.07;;;;;;;-17.50;59.19;99425.64;124798;1144;22664;-67
2021/01/17 05:52:56;;;;;;;112.00;30.13;;;;;;;-17.51;59.48;99433.53;124550;1143;22659;-68
2021/01/17 05:55:32;;;;;;;137.20;30.47;;;;;;;-17.52;59.64;99426.64;124729;1143;22940;-68
2021/01/17 05:58:33;;;;;;;118.83;29.67;;;;;;;-17.53;59.83;99433.61;124666;1143;22760;-68
2021/01/17 06:01:14;;;;;;;125.67;28.17;;;;;;;-17.53;59.90;99435.38;124322;1146;23670;-67
2021/01/17 06:03:49;;;;;;;167.93;37.03;;;;;;;-17.52;60.54;99432.69;124332;1147;23363;-68
2021/01/17 06:06:29;;;;;;;102.00;28.50;;;;;;;-17.67;60.19;99399.73;124428;1147;23495;-68
2021/01/17 06:08:58;;;;;;;96.07;24.67;;;;;;;-17.42;60.46;99435.61;124436;1147;23288;-68
2021/01/17 06:11:25;;;;;;;69.17;21.23;;;;;;;-17.41;60.54;99435.53;124402;1147;22844;-68
2021/01/17 06:14:00;;;;;;;69.97;21.10;;;;;;;-17.38;60.95;99437.97;124208;1147;22790;-67
2021/01/17 06:16:40;;;;;;;73.25;21.90;;;;;;;-17.37;60.87;99434.45;124231;1146;23480;-67
2021/01/17 06:19:12;;;;;;;81.77;20.57;;;;;;;-17.34;60.12;99444.69;124257;1146;23879;-67
2021/01/17 06:21:47;;;;;;;75.27;22.70;;;;;;;-17.32;60.41;99442.01;124325;1147;22785;-67
2021/01/17 06:24:15;;;;;;;80.87;22.97;;;;;;;-17.31;61.43;99448.89;124054;1146;22751;-67
2021/01/17 06:26:43;;;;;;;77.13;24.37;;;;;;;-17.30;61.13;99453.14;124107;1147;23574;-66
2021/01/17 06:29:10;;;;;;;84.93;26.67;;;;;;;-17.28;60.19;99453.91;124028;1147;22843;-64
2021/01/17 06:31:38;;;;;;;121.60;29.00;;;;;;;-17.25;60.63;99456.34;124299;1148;22725;-66
2021/01/17 06:34:11;;;;;;;124.67;34.20;;;;;;;-17.21;61.07;99455.25;124231;1147;22785;-65
2021/01/17 06:36:40;;;;;;;131.47;36.47;;;;;;;-17.17;60.47;99458.53;124262;1147;22693;-65
2021/01/17 06:39:26;;;;;;;132.97;37.17;;;;;;;-17.14;61.00;99453.97;124514;1142;22718;-65
2021/01/17 06:41:55;;;;;;;103.87;29.00;;;;;;;-17.06;60.84;99464.81;124646;1144;22695;-67
2021/01/17 06:44:32;;;;;;;84.63;27.30;;;;;;;-17.06;60.20;99459.60;124263;1144;22700;-66
2021/01/17 06:47:01;;;;;;;93.47;28.00;;;;;;;-17.02;60.32;99462.88;124675;1143;23300;-63
2021/01/17 06:52:05;;;;;;;72.20;18.80;;;;;;;-16.95;61.37;99467.64;120210;1148;26341;-63
2021/01/17 06:54:33;;;;;;;70.13;20.40;;;;;;;-16.90;61.07;99465.63;124244;1146;22695;-63
2021/01/17 06:57:01;;;;;;;77.70;23.53;;;;;;;-16.86;61.61;99454.08;124477;1147;22742;-66
2021/01/17 06:59:45;;;;;;;71.63;26.40;;;;;;;-16.82;62.02;99456.52;124284;1146;22715;-65
2021/01/17 07:02:12;;;;;;;73.73;22.97;;;;;;;-16.78;61.85;99452.81;124352;1145;22757;-65
2021/01/17 07:04:41;;;;;;;71.83;23.43;;;;;;;-16.73;62.14;99445.58;124141;1147;22686;-69
2021/01/17 07:07:30;;;;;;;68.35;22.65;;;;;;;-16.65;62.28;99456.38;124182;1147;22700;-60
2021/01/17 07:10:01;;;;;;;77.27;24.23;;;;;;;-16.56;62.29;99461.86;124187;1147;22706;-64
2021/01/17 07:12:37;;;;;;;72.20;23.75;;;;;;;-16.49;63.00;99451.92;124047;1148;22701;-64
2021/01/17 07:15:09;;;;;;;66.42;21.00;;;;;;;-16.40;63.05;99453.13;121006;1145;23608;-63
2021/01/17 07:17:38;;;;;;;74.73;25.00;;;;;;;-16.31;63.19;99450.00;124165;1147;22765;-65
2021/01/17 07:20:08;;;;;;;93.73;31.10;;;;;;;-16.20;62.27;99452.80;124077;1149;22698;-64
2021/01/17 07:22:36;;;;;;;89.93;30.80;;;;;;;-16.12;62.29;99456.61;124127;1148;22685;-64
2021/01/17 07:25:06;;;;;;;96.43;29.87;;;;;;;-16.05;63.26;99446.66;124078;1149;22671;-65
2021/01/17 07:28:03;;;;;;;89.90;26.97;;;;;;;-15.99;62.19;99448.88;124227;1149;23247;-65
2021/01/17 07:30:53;;;;;;;85.03;27.43;;;;;;;-15.90;62.99;99447.50;124064;1149;23009;-65
2021/01/17 07:33:28;;;;;;;93.97;28.20;;;;;;;-15.82;63.50;99442.63;124139;1149;22700;-64
2021/01/17 07:35:58;;;;;;;98.30;29.90;;;;;;;-15.75;63.63;99441.33;124109;1148;22722;-64
2021/01/17 07:38:29;;;;;;;88.43;31.00;;;;;;;-15.65;62.52;99444.20;124140;1149;22753;-64
2021/01/17 07:41:02;;;;;;;80.97;28.20;;;;;;;-15.56;63.22;99444.45;124111;1148;22693;-64
2021/01/17 07:43:34;;;;;;;93.67;28.37;;;;;;;-15.47;62.85;99443.86;124297;1148;23453;-64
2021/01/17 07:46:08;;;;;;;79.77;26.73;;;;;;;-15.35;63.81;99441.41;124152;1148;23316;-64
2021/01/17 07:48:37;;;;;;;83.33;27.50;;;;;;;-15.26;63.17;99432.97;124121;1149;22776;-64
2021/01/17 07:51:07;;;;;;;88.23;31.63;;;;;;;-15.15;62.60;99439.20;123931;1149;22738;-64
2021/01/17 07:53:37;;;;;;;87.77;28.83;;;;;;;-15.02;62.76;99436.64;124325;1148;22662;-64
2021/01/17 07:56:09;;;;;;;81.20;30.60;;;;;;;-14.91;63.34;99439.38;124123;1148;22677;-64
2021/01/17 07:58:47;;;;;;;78.93;29.17;;;;;;;-14.83;63.66;99439.70;124289;1148;22678;-65
2021/01/17 08:01:44;;;;;;;92.47;32.90;;;;;;;-14.74;63.52;99433.89;123891;1148;23367;-63
2021/01/17 08:04:16;;;;;;;82.30;30.35;;;;;;;-14.64;63.06;99436.73;124160;1148;22679;-65
2021/01/17 08:06:47;;;;;;;86.37;30.60;;;;;;;-14.60;63.65;99432.14;124047;1148;22693;-65
2021/01/17 08:09:18;;;;;;;88.50;32.17;;;;;;;-14.53;63.51;99433.39;124113;1148;22686;-66
2021/01/17 08:11:49;;;;;;;89.53;31.37;;;;;;;-14.46;64.13;99430.27;124049;1149;22723;-66
2021/01/17 08:14:17;;;;;;;82.03;27.20;;;;;;;-14.53;63.98;99420.31;124209;1148;23868;-64
2021/01/17 08:17:03;;;;;;;76.40;26.87;;;;;;;-14.37;63.23;99439.23;123962;1149;22660;-65
2021/01/17 08:19:34;;;;;;;62.07;21.30;;;;;;;-14.30;63.57;99445.74;124105;1149;23351;-65
2021/01/17 08:22:16;;;;;;;69.87;25.63;;;;;;;-14.24;63.66;99445.31;124078;1148;23050;-66
2021/01/17 08:24:44;;;;;;;73.70;27.47;;;;;;;-14.15;64.31;99447.32;124232;1148;22785;-65
2021/01/17 08:27:42;;;;;;;85.70;29.30;;;;;;;-14.09;64.08;99443.43;123857;1149;22685;-68
2021/01/17 08:30:19;;;;;;;161.10;40.85;;;;;;;-14.01;63.60;99436.75;124059;1149;22793;-65
2021/01/17 08:32:53;;;;;;;130.80;34.77;;;;;;;-14.04;63.18;99436.95;124054;1148;22705;-66
2021/01/17 08:35:24;;;;;;;61.57;25.83;;;;;;;-14.16;63.00;99435.17;124103;1149;22695;-66
2021/01/17 08:38:11;;;;;;;52.80;19.73;;;;;;;-14.31;63.24;99433.60;124035;1149;22705;-65
2021/01/17 08:40:42;;;;;;;56.13;20.60;;;;;;;-14.35;64.39;99434.74;124098;1149;22706;-67
2021/01/17 08:43:15;;;;;;;46.33;17.40;;;;;;;-14.33;65.31;99430.25;124060;1149;22790;-67
2021/01/17 08:45:46;;;;;;;53.40;21.07;;;;;;;-14.21;65.10;99439.03;124183;1149;22683;-65
2021/01/17 08:48:17;;;;;;;47.40;17.90;;;;;;;-14.09;65.12;99433.80;123909;1149;22686;-67
2021/01/17 08:50:45;;;;;;;50.47;19.27;;;;;;;-13.96;65.08;99434.63;124211;1148;22827;-66
2021/01/17 08:53:23;;;;;;;44.05;16.85;;;;;;;-13.83;65.55;99434.61;123999;1148;27506;-67
2021/01/17 08:55:57;;;;;;;56.73;19.50;;;;;;;-13.73;65.22;99437.45;124276;1148;25471;-66
2021/01/17 08:58:25;;;;;;;52.77;17.93;;;;;;;-13.60;65.38;99440.88;124162;1148;22782;-66
2021/01/17 09:00:53;;;;;;;41.63;15.10;;;;;;;-13.52;64.72;99429.84;124275;1149;22760;-66
2021/01/17 09:03:28;;;;;;;39.07;13.70;;;;;;;-13.56;64.49;99428.41;124066;1149;22698;-66
2021/01/17 09:06:07;;;;;;;36.13;12.93;;;;;;;-13.67;64.19;99419.50;124219;1148;22676;-64
2021/01/17 09:08:35;;;;;;;30.80;11.10;;;;;;;-13.70;64.71;99424.11;124059;1148;24728;-65
2021/01/17 09:11:02;;;;;;;33.37;12.03;;;;;;;-13.65;65.13;99424.63;124220;1148;22817;-67
2021/01/17 09:13:30;;;;;;;34.50;13.90;;;;;;;-13.52;64.89;99414.96;124154;1150;22632;-67
2021/01/17 09:16:01;;;;;;;37.87;14.90;;;;;;;-13.47;64.27;99412.02;124055;1148;24416;-66
2021/01/17 09:18:30;;;;;;;43.00;13.97;;;;;;;-13.47;64.55;99410.24;124225;1148;22678;-65
2021/01/17 09:20:57;;;;;;;46.77;15.30;;;;;;;-13.37;64.91;99419.11;124207;1148;22715;-66
2021/01/17 09:23:25;;;;;;;27.20;12.17;;;;;;;-13.26;64.75;99429.65;124190;1148;22724;-65
2021/01/17 09:25:57;;;;;;;32.20;11.13;;;;;;;-13.18;64.58;99421.25;124140;1149;22680;-66
2021/01/17 09:28:27;;;;;;;26.43;11.87;;;;;;;-13.08;64.59;99424.00;124139;1148;22671;-65
2021/01/17 09:30:56;;;;;;;26.25;10.35;;;;;;;-12.98;64.59;99417.96;124014;1149;22707;-65
2021/01/17 09:33:24;;;;;;;23.13;9.93;;;;;;;-12.85;64.17;99411.84;124213;1149;22715;-65
2021/01/17 09:35:51;;;;;;;27.53;11.57;;;;;;;-12.73;64.39;99409.14;123081;1148;23048;-65
2021/01/17 09:38:20;;;;;;;34.83;13.53;;;;;;;-12.59;64.08;99402.86;120854;1150;22915;-65
2021/01/17 09:40:49;;;;;;;28.03;12.10;;;;;;;-12.49;63.58;99411.71;120803;1149;22896;-65
2021/01/17 09:43:17;;;;;;;327.33;127.63;;;;;;;-12.39;63.32;99402.18;124220;1149;22671;-65
2021/01/17 09:45:51;;;;;;;54.33;18.60;;;;;;;-12.42;63.57;99398.98;124097;1148;22779;-65
2021/01/17 09:48:22;;;;;;;241.70;88.37;;;;;;;-12.43;63.42;99411.27;124158;1149;22677;-66
2021/01/17 09:51:06;;;;;;;168.87;61.67;;;;;;;-12.47;63.05;99395.85;124007;1149;22747;-66
2021/01/17 09:53:34;;;;;;;39.00;14.23;;;;;;;-12.41;63.70;99398.03;124168;1148;22966;-64
2021/01/17 09:56:03;;;;;;;44.40;16.63;;;;;;;-12.34;63.37;99392.18;124080;1148;22683;-63
2021/01/17 09:58:32;;;;;;;37.63;14.07;;;;;;;-12.25;62.93;99391.47;124265;1148;23510;-63
2021/01/17 10:01:00;;;;;;;40.33;15.53;;;;;;;-12.20;62.93;99389.34;123998;1149;22795;-63
2021/01/17 10:03:28;;;;;;;37.40;14.57;;;;;;;-12.12;63.65;99388.77;124165;1149;22713;-63
2021/01/17 10:05:55;;;;;;;40.57;15.00;;;;;;;-12.03;63.71;99395.08;124072;1149;25908;-63
2021/01/17 10:08:23;;;;;;;85.13;25.03;;;;;;;-11.96;62.64;99385.75;124177;1149;23625;-62
2021/01/17 10:10:50;;;;;;;43.37;17.63;;;;;;;-11.94;62.35;99395.19;124018;1149;22706;-62
2021/01/17 10:13:17;;;;;;;41.90;16.73;;;;;;;-12.00;63.49;99374.67;124232;1148;23393;-62
2021/01/17 10:15:47;;;;;;;142.60;39.17;;;;;;;-11.90;62.21;99383.50;124282;1148;23679;-62
2021/01/17 10:18:14;;;;;;;81.07;24.23;;;;;;;-11.90;62.67;99387.92;124079;1148;23878;-62
2021/01/17 10:20:42;;;;;;;83.63;24.83;;;;;;;-11.95;61.44;99388.27;124094;1149;22685;-62
2021/01/17 10:23:12;;;;;;;127.65;31.85;;;;;;;-12.16;61.45;99376.81;124059;1149;22715;-63
2021/01/17 10:25:40;;;;;;;129.50;30.60;;;;;;;-12.29;61.35;99378.72;124135;1148;22704;-63
2021/01/17 10:28:08;;;;;;;57.00;18.63;;;;;;;-12.40;61.21;99379.51;124011;1149;23393;-63
2021/01/17 10:30:40;;;;;;;85.40;28.90;;;;;;;-12.51;61.30;99374.25;124168;1149;22695;-63
2021/01/17 10:33:15;;;;;;;86.10;25.70;;;;;;;-12.56;62.02;99371.16;124068;1148;22744;-63
2021/01/17 10:35:47;;;;;;;72.30;21.20;;;;;;;-12.70;61.94;99366.95;124197;1148;22740;-63
2021/01/17 10:38:17;;;;;;;77.43;21.53;;;;;;;-12.74;62.19;99367.29;123991;1148;22784;-63
2021/01/17 10:40:44;;;;;;;96.57;31.00;;;;;;;-12.82;62.23;99372.25;124070;1148;23632;-63
2021/01/17 10:43:24;;;;;;;90.53;25.37;;;;;;;-12.85;62.61;99368.10;124209;1149;22662;-63
2021/01/17 10:45:59;;;;;;;245.60;61.53;;;;;;;-12.89;62.71;99377.97;124229;1148;22683;-63
2021/01/17 10:48:27;;;;;;;123.40;30.80;;;;;;;-12.84;62.97;99375.02;124115;1148;22697;-63
2021/01/17 10:51:01;;;;;;;143.27;36.17;;;;;;;-12.93;62.38;99368.66;124148;1149;22753;-63
2021/01/17 10:53:38;;;;;;;167.97;39.77;;;;;;;-12.95;62.69;99373.17;124100;1148;22682;-63
2021/01/17 10:56:05;;;;;;;267.83;61.90;;;;;;;-12.95;62.39;99373.17;124210;1148;22686;-62
2021/01/17 10:58:46;;;;;;;135.07;39.77;;;;;;;-12.90;62.54;99378.08;124011;1148;23159;-63
2021/01/17 11:01:13;;;;;;;149.70;42.00;;;;;;;-12.90;62.35;99370.22;122680;1149;22949;-63
2021/01/17 11:03:44;;;;;;;101.40;33.20;;;;;;;-12.89;62.22;99377.97;124015;1149;22966;-62
2021/01/17 11:06:13;;;;;;;83.83;28.07;;;;;;;-12.90;62.45;99373.67;122628;1149;22939;-62
2021/01/17 11:08:51;;;;;;;78.03;24.97;;;;;;;-12.89;62.16;99370.11;120613;1151;22911;-62
2021/01/17 11:11:19;;;;;;;74.60;22.80;;;;;;;-12.97;62.01;99369.82;124087;1149;24048;-63
2021/01/17 11:13:59;;;;;;;80.67;23.20;;;;;;;-13.05;62.23;99356.45;124069;1149;22782;-63
2021/01/17 11:16:40;;;;;;;39.43;15.87;;;;;;;-13.12;62.68;99357.84;124196;1148;23309;-63
2021/01/17 11:19:17;;;;;;;41.87;16.47;;;;;;;-13.11;62.85;99361.30;124100;1149;22670;-63